Noxon, MT (59853)

10:36 AM MDT on August 03, 2015 (GMT -0600)
MesoWest | | Change Station
CLOSE
Current Station
Personal Weather Station
Location: Libby, MT
Elevation: 3798 ft
Nearby Weather Stations

Elev 3798 ft 48.12 °N, 115.42 °W | Updated 36 minutes ago

Clear
Clear
66 °F
Feels Like 66 °F
N
4
Wind Variable Wind from SE
Gusts 5.0 mph

Today
High -- | Low -- °F
--% Chance of Precip.
Yesterday
High -- | Low -- °F
Precip. -- in
6:21 AM 9:16 PM
Waning Gibbous, 85% visible
Pressure 29.83 in
Visibility 7.0 miles
Clouds Clear
Dew Point 41 °F
Humidity 39%
Rainfall in
Snow Depth Not available.
UV 4 out of 12
Pollen 6.30 out of 12
Air Quality Not available.
Flu Activity Not available.
METAR KSZT 031615Z AUTO 02003KT 7SM CLR 22/06 A2983 RMK AO2

More Conditions Fewer Conditions

Pressure 29.83 in
Visibility 7.0 miles
Clouds Clear
Dew Point 41 °F
Humidity 39%
Rainfall in
Snow Depth Not available.
UV 4 out of 12
Pollen 6.30 out of 12
Air Quality Not available.
Flu Activity Not available.
METAR KSZT 031615Z AUTO 02003KT 7SM CLR 22/06 A2983 RMK AO2

More Conditions Fewer Conditions

10-Day Weather Forecast

×

Almanac

Astronomy

Aug. 03, 2015 Rise Set
Actual Time
Civil Twilight
Nautical Twilight
Astronomical Twilight
Moon
Length of Visible Light
Length of Day
Tomorrow will be .
, % of the Moon is Illuminated

Today's Extremes

State Highs State Lows

Community

WunderPhotos

Upload Photos

1,843,668 photos uploaded!

WunderBlogs® & News

Nearby

Air Quality

  Air Quality AQ Index Pollutant
Not available.

Snow Depth

Station Depth Elevation

Earthquake Activity

City Distance Mag. Time & Date
Minimum magnitude displayed is 2.5.

Coastal Water Temperatures

Place Temperature

Stations

Nearby Weather Stations

Station Location Temp. Windchill Dew Point Humidity Wind Precip. Elev Updated Type